createdAt,value
2018-01-23T00:00:10.235Z,21.41
2018-01-23T00:00:41.866Z,21.41
2018-01-23T00:01:13.495Z,21.36
2018-01-23T00:01:45.118Z,21.35
2018-01-23T00:02:16.746Z,21.30
2018-01-23T00:02:48.374Z,21.28
2018-01-23T00:03:20.065Z,21.27
2018-01-23T00:03:51.685Z,21.23
2018-01-23T00:04:23.305Z,21.21
2018-01-23T00:04:54.934Z,21.20
2018-01-23T00:05:26.594Z,21.18
2018-01-23T00:05:58.505Z,21.17
2018-01-23T00:06:30.126Z,21.16
2018-01-23T00:07:01.750Z,21.16
2018-01-23T00:07:33.381Z,21.14
2018-01-23T00:08:05.001Z,21.13
2018-01-23T00:08:36.634Z,21.12
2018-01-23T00:09:08.258Z,21.11
2018-01-23T00:09:39.881Z,21.10
2018-01-23T00:10:11.506Z,21.11
2018-01-23T00:10:43.169Z,21.11
2018-01-23T00:11:14.794Z,21.11
2018-01-23T00:11:46.458Z,21.10
2018-01-23T00:12:18.082Z,21.10
2018-01-23T00:12:49.718Z,21.07
2018-01-23T00:13:21.341Z,21.05
2018-01-23T00:13:52.970Z,21.05
2018-01-23T00:14:24.595Z,21.03
2018-01-23T00:14:56.218Z,21.02
2018-01-23T00:15:27.836Z,21.03
2018-01-23T00:15:59.489Z,21.03
2018-01-23T00:16:31.154Z,21.02
2018-01-23T00:17:02.779Z,21.02
2018-01-23T00:17:34.454Z,21.02
2018-01-23T00:18:06.090Z,21.01
2018-01-23T00:18:37.718Z,21.00
2018-01-23T00:19:09.346Z,21.01
2018-01-23T00:19:40.969Z,21.02
2018-01-23T00:20:12.598Z,21.01
2018-01-23T00:20:44.226Z,21.01
2018-01-23T00:21:15.890Z,21.01
2018-01-23T00:21:47.514Z,21.03
2018-01-23T00:22:19.174Z,21.02
2018-01-23T00:22:50.829Z,21.01
2018-01-23T00:23:22.453Z,21.03
2018-01-23T00:23:54.074Z,21.04
2018-01-23T00:24:25.705Z,21.05
2018-01-23T00:24:57.335Z,21.07
2018-01-23T00:25:28.966Z,21.06
2018-01-23T00:26:00.592Z,21.07
2018-01-23T00:26:32.217Z,21.06
2018-01-23T00:27:03.842Z,21.05
2018-01-23T00:27:35.689Z,21.05
2018-01-23T00:28:07.313Z,21.05
2018-01-23T00:28:38.937Z,21.06
2018-01-23T00:29:10.557Z,21.04
2018-01-23T00:29:42.186Z,21.04
2018-01-23T00:30:13.813Z,21.03
2018-01-23T00:30:45.446Z,21.03
2018-01-23T00:31:17.074Z,21.03
2018-01-23T00:31:48.693Z,21.05
2018-01-23T00:32:20.326Z,21.04
2018-01-23T00:32:51.998Z,21.03
2018-01-23T00:33:23.629Z,21.03
2018-01-23T00:33:55.253Z,21.02
2018-01-23T00:34:26.878Z,21.03
2018-01-23T00:34:58.501Z,21.01
2018-01-23T00:35:30.166Z,20.99
2018-01-23T00:36:01.795Z,21.02
2018-01-23T00:36:33.417Z,21.01
2018-01-23T00:37:05.050Z,21.01
2018-01-23T00:37:36.678Z,21.02
2018-01-23T00:38:08.334Z,21.02
2018-01-23T00:38:39.957Z,21.03
2018-01-23T00:39:11.577Z,21.03
2018-01-23T00:39:43.201Z,21.01
2018-01-23T00:40:14.833Z,21.00
2018-01-23T00:40:46.461Z,21.00
2018-01-23T00:41:18.086Z,21.02
2018-01-23T00:41:49.713Z,21.00
2018-01-23T00:42:21.333Z,21.02
2018-01-23T00:42:52.958Z,21.02
2018-01-23T00:43:24.586Z,21.01
2018-01-23T00:43:56.209Z,21.00
2018-01-23T00:44:27.881Z,20.99
2018-01-23T00:44:59.509Z,21.00
2018-01-23T00:45:31.129Z,20.99
2018-01-23T00:46:02.759Z,20.98
2018-01-23T00:46:34.386Z,20.97
2018-01-23T00:47:06.014Z,20.96
2018-01-23T00:47:37.634Z,20.97
2018-01-23T00:48:09.257Z,20.98
2018-01-23T00:48:40.877Z,20.96
2018-01-23T00:49:12.537Z,20.96
2018-01-23T00:49:44.161Z,20.99
2018-01-23T00:50:15.783Z,20.99
2018-01-23T00:50:47.405Z,20.98
2018-01-23T00:51:19.031Z,20.98
2018-01-23T00:51:50.658Z,20.97
2018-01-23T00:52:22.321Z,20.97
2018-01-23T00:52:53.941Z,20.96
2018-01-23T00:53:25.562Z,20.98
2018-01-23T00:53:57.181Z,20.98
2018-01-23T00:54:28.850Z,20.97
2018-01-23T00:55:00.477Z,20.96
2018-01-23T00:55:32.102Z,20.98
2018-01-23T00:56:03.721Z,20.96
2018-01-23T00:56:35.341Z,20.96
2018-01-23T00:57:06.970Z,20.98
2018-01-23T00:57:38.601Z,20.96
2018-01-23T00:58:10.223Z,20.98
2018-01-23T00:58:41.854Z,20.97
2018-01-23T00:59:13.510Z,20.96
2018-01-23T00:59:45.177Z,20.95
2018-01-23T01:00:16.797Z,20.95
2018-01-23T01:00:48.419Z,20.95
2018-01-23T01:01:20.081Z,20.96
2018-01-23T01:01:51.711Z,20.96
2018-01-23T01:02:23.339Z,20.97
2018-01-23T01:02:54.961Z,20.87
2018-01-23T01:03:26.590Z,20.95
2018-01-23T01:03:58.210Z,20.96
2018-01-23T01:04:29.829Z,20.91
2018-01-23T01:05:01.458Z,20.95
2018-01-23T01:05:33.318Z,20.96
2018-01-23T01:06:04.946Z,20.97
2018-01-23T01:06:36.577Z,21.00
2018-01-23T01:07:08.202Z,21.00
2018-01-23T01:07:39.826Z,21.01
2018-01-23T01:08:11.454Z,21.03
2018-01-23T01:08:43.077Z,21.04
2018-01-23T01:09:14.701Z,21.04
2018-01-23T01:09:46.321Z,21.03
2018-01-23T01:10:17.950Z,21.05
2018-01-23T01:10:49.618Z,21.05
2018-01-23T01:11:21.250Z,21.04
2018-01-23T01:11:52.873Z,21.05
2018-01-23T01:12:24.537Z,21.06
2018-01-23T01:12:56.157Z,21.04
2018-01-23T01:13:27.785Z,21.04
2018-01-23T01:13:59.411Z,21.04
2018-01-23T01:14:31.033Z,21.04
2018-01-23T01:15:02.662Z,21.04
2018-01-23T01:15:34.285Z,21.04
2018-01-23T01:16:05.905Z,21.04
2018-01-23T01:16:37.533Z,21.06
2018-01-23T01:17:09.193Z,21.09
2018-01-23T01:17:40.857Z,21.19
2018-01-23T01:18:12.482Z,21.15
2018-01-23T01:18:44.151Z,21.11
2018-01-23T01:19:15.782Z,21.07
2018-01-23T01:19:47.405Z,21.02
2018-01-23T01:20:19.034Z,20.98
2018-01-23T01:20:50.657Z,20.96
2018-01-23T01:21:22.284Z,20.96
2018-01-23T01:21:53.913Z,20.97
2018-01-23T01:22:25.538Z,20.97
2018-01-23T01:22:57.157Z,20.99
2018-01-23T01:23:28.821Z,20.98
2018-01-23T01:24:00.447Z,21.00
2018-01-23T01:24:32.073Z,20.99
2018-01-23T01:25:03.693Z,20.98
2018-01-23T01:25:35.317Z,20.99
2018-01-23T01:26:06.950Z,20.99
2018-01-23T01:26:38.622Z,21.02
2018-01-23T01:27:10.290Z,21.03
2018-01-23T01:27:41.917Z,21.05
2018-01-23T01:28:13.550Z,21.04
2018-01-23T01:28:45.174Z,21.04
2018-01-23T01:29:16.802Z,21.01
2018-01-23T01:29:48.425Z,21.01
2018-01-23T01:30:20.053Z,21.02
2018-01-23T01:30:51.674Z,21.02
2018-01-23T01:31:23.302Z,21.01
2018-01-23T01:31:54.928Z,21.00
2018-01-23T01:32:26.553Z,21.00
2018-01-23T01:32:58.186Z,21.01
2018-01-23T01:33:29.806Z,21.00
2018-01-23T01:34:01.474Z,21.02
2018-01-23T01:34:33.286Z,21.00
2018-01-23T01:35:04.913Z,20.99
2018-01-23T01:35:36.533Z,20.99
2018-01-23T01:36:08.161Z,21.00
2018-01-23T01:36:39.790Z,21.01
2018-01-23T01:37:11.413Z,21.02
2018-01-23T01:37:43.045Z,21.02
2018-01-23T01:38:14.666Z,21.02
2018-01-23T01:38:46.293Z,21.03
2018-01-23T01:39:17.941Z,21.01
2018-01-23T01:39:49.693Z,21.00
2018-01-23T01:40:21.321Z,21.01
2018-01-23T01:40:52.941Z,21.04
2018-01-23T01:41:24.570Z,21.01
2018-01-23T01:41:56.198Z,20.88
2018-01-23T01:42:27.830Z,21.00
2018-01-23T01:42:59.454Z,21.00
2018-01-23T01:43:31.090Z,20.99
2018-01-23T01:44:02.723Z,20.99
2018-01-23T01:44:34.346Z,21.00
2018-01-23T01:45:06.014Z,21.00
2018-01-23T01:45:37.634Z,21.00
2018-01-23T01:46:09.256Z,21.00
2018-01-23T01:46:40.921Z,21.00
2018-01-23T01:47:12.541Z,20.99
2018-01-23T01:47:44.161Z,20.98
2018-01-23T01:48:15.785Z,20.96
2018-01-23T01:48:47.406Z,20.95
2018-01-23T01:49:19.029Z,20.94
2018-01-23T01:49:50.654Z,20.96
2018-01-23T01:50:22.277Z,20.96
2018-01-23T01:50:53.949Z,20.97
2018-01-23T01:51:25.580Z,20.97
2018-01-23T01:51:57.211Z,20.99
2018-01-23T01:52:28.843Z,20.98
2018-01-23T01:53:00.521Z,20.98
2018-01-23T01:53:32.145Z,20.99
2018-01-23T01:54:03.765Z,20.98
2018-01-23T01:54:35.385Z,20.98
2018-01-23T01:55:07.014Z,20.98
2018-01-23T01:55:38.637Z,20.96
2018-01-23T01:56:10.258Z,20.95
2018-01-23T01:56:41.882Z,20.96
2018-01-23T01:57:13.505Z,20.95
2018-01-23T01:57:45.138Z,20.95
2018-01-23T01:58:16.801Z,20.95
2018-01-23T01:58:48.425Z,20.93
2018-01-23T01:59:20.057Z,20.95
2018-01-23T01:59:51.677Z,20.94
2018-01-23T02:00:23.301Z,20.96
2018-01-23T02:00:54.926Z,20.96
2018-01-23T02:01:26.554Z,20.97
2018-01-23T02:01:58.181Z,20.94
2018-01-23T02:02:29.810Z,20.96
2018-01-23T02:03:01.438Z,20.95
2018-01-23T02:03:33.104Z,20.96
2018-01-23T02:04:04.729Z,20.95
2018-01-23T02:04:36.389Z,20.96
2018-01-23T02:05:08.009Z,20.95
2018-01-23T02:05:39.630Z,20.95
2018-01-23T02:06:11.257Z,20.96
2018-01-23T02:06:42.886Z,20.96
2018-01-23T02:07:14.517Z,20.94
2018-01-23T02:07:46.146Z,20.96
2018-01-23T02:08:17.826Z,20.95
2018-01-23T02:08:49.445Z,20.94
2018-01-23T02:09:21.070Z,20.92
2018-01-23T02:09:52.698Z,20.92
2018-01-23T02:10:24.324Z,20.90
2018-01-23T02:10:55.945Z,20.93
2018-01-23T02:11:27.569Z,20.93
2018-01-23T02:11:59.197Z,20.94
2018-01-23T02:12:30.821Z,20.94
2018-01-23T02:13:02.449Z,20.93
2018-01-23T02:13:34.120Z,20.91
2018-01-23T02:14:05.750Z,20.92
2018-01-23T02:14:37.377Z,20.91
2018-01-23T02:15:09.002Z,20.93
2018-01-23T02:15:40.621Z,20.93
2018-01-23T02:16:12.241Z,20.93
2018-01-23T02:16:43.866Z,20.94
2018-01-23T02:17:15.493Z,20.96
2018-01-23T02:17:47.165Z,20.98
2018-01-23T02:18:18.795Z,20.98
2018-01-23T02:18:50.420Z,20.96
2018-01-23T02:19:22.041Z,20.99
2018-01-23T02:19:53.666Z,20.96
2018-01-23T02:20:25.289Z,20.97
2018-01-23T02:20:56.914Z,20.98
2018-01-23T02:21:28.533Z,20.98
2018-01-23T02:22:00.162Z,20.97
2018-01-23T02:22:31.781Z,20.98
2018-01-23T02:23:03.449Z,20.96
2018-01-23T02:23:35.078Z,20.95
2018-01-23T02:24:06.708Z,20.95
2018-01-23T02:24:38.329Z,20.93
2018-01-23T02:25:09.957Z,20.93
2018-01-23T02:25:41.586Z,20.91
2018-01-23T02:26:13.209Z,20.92
2018-01-23T02:26:44.838Z,20.91
2018-01-23T02:27:16.505Z,20.93
2018-01-23T02:27:48.134Z,20.90
2018-01-23T02:28:19.757Z,20.88
2018-01-23T02:28:51.386Z,20.88
2018-01-23T02:29:23.014Z,20.91
2018-01-23T02:29:54.637Z,20.90
2018-01-23T02:30:26.270Z,20.90
2018-01-23T02:30:57.890Z,20.92
2018-01-23T02:31:29.514Z,20.90
2018-01-23T02:32:01.133Z,20.89
2018-01-23T02:32:32.758Z,20.88
2018-01-23T02:33:04.382Z,20.89
2018-01-23T02:33:36.070Z,20.88
2018-01-23T02:34:07.706Z,20.88
2018-01-23T02:34:39.330Z,20.90
2018-01-23T02:35:10.961Z,20.88
2018-01-23T02:35:42.586Z,20.89
2018-01-23T02:36:14.214Z,20.89
2018-01-23T02:36:45.838Z,20.90
2018-01-23T02:37:17.474Z,20.91
2018-01-23T02:37:49.361Z,20.91
2018-01-23T02:38:20.981Z,20.94
2018-01-23T02:38:52.609Z,20.91
2018-01-23T02:39:24.234Z,20.93
2018-01-23T02:39:55.858Z,20.91
2018-01-23T02:40:27.482Z,20.92
2018-01-23T02:40:59.106Z,20.92
2018-01-23T02:41:30.726Z,20.91
2018-01-23T02:42:02.356Z,20.89
2018-01-23T02:42:33.978Z,20.90
2018-01-23T02:43:05.616Z,20.93
2018-01-23T02:43:37.241Z,20.91
2018-01-23T02:44:08.901Z,20.92
2018-01-23T02:44:40.558Z,20.91
2018-01-23T02:45:12.234Z,20.89
2018-01-23T02:45:43.862Z,20.87
2018-01-23T02:46:15.484Z,20.88
2018-01-23T02:46:47.114Z,20.87
2018-01-23T02:47:18.745Z,20.87
2018-01-23T02:47:50.365Z,20.86
2018-01-23T02:48:21.992Z,20.84
2018-01-23T02:48:53.626Z,20.85
2018-01-23T02:49:25.254Z,20.85
2018-01-23T02:49:56.874Z,20.87
2018-01-23T02:50:28.542Z,20.85
2018-01-23T02:51:00.166Z,20.84
2018-01-23T02:51:31.793Z,20.84
2018-01-23T02:52:03.417Z,20.84
2018-01-23T02:52:35.046Z,20.84
2018-01-23T02:53:06.669Z,20.84
2018-01-23T02:53:38.289Z,20.84
2018-01-23T02:54:09.909Z,20.85
2018-01-23T02:54:41.547Z,20.86
2018-01-23T02:55:13.169Z,20.90
2018-01-23T02:55:44.834Z,20.92
2018-01-23T02:56:16.458Z,20.92
2018-01-23T02:56:48.085Z,20.92
2018-01-23T02:57:19.714Z,20.92
2018-01-23T02:57:51.338Z,20.90
2018-01-23T02:58:22.978Z,20.90
2018-01-23T02:58:54.601Z,20.89
2018-01-23T02:59:26.234Z,20.92
2018-01-23T02:59:57.862Z,20.93
2018-01-23T03:00:29.521Z,20.93
2018-01-23T03:01:01.146Z,20.74
2018-01-23T03:01:32.775Z,20.93
2018-01-23T03:02:04.418Z,20.92
2018-01-23T03:02:36.041Z,20.92
2018-01-23T03:03:07.666Z,20.92
2018-01-23T03:03:39.288Z,20.94
2018-01-23T03:04:10.953Z,20.93
2018-01-23T03:04:42.633Z,20.93
2018-01-23T03:05:14.256Z,20.92
2018-01-23T03:05:45.882Z,20.90
2018-01-23T03:06:17.509Z,20.90
2018-01-23T03:06:49.142Z,20.87
2018-01-23T03:07:20.769Z,20.86
2018-01-23T03:07:52.390Z,20.81
2018-01-23T03:08:24.013Z,20.86
2018-01-23T03:08:55.638Z,20.87
2018-01-23T03:09:27.259Z,20.86
2018-01-23T03:09:58.927Z,20.88
2018-01-23T03:10:30.553Z,20.87
2018-01-23T03:11:02.177Z,20.86
2018-01-23T03:11:33.814Z,20.87
2018-01-23T03:12:05.446Z,20.86
2018-01-23T03:12:37.069Z,20.86
2018-01-23T03:13:08.689Z,20.86
2018-01-23T03:13:40.309Z,20.84
2018-01-23T03:14:11.930Z,20.87
2018-01-23T03:14:43.594Z,20.88
2018-01-23T03:15:15.258Z,20.88
2018-01-23T03:15:46.881Z,20.86
2018-01-23T03:16:18.510Z,20.85
2018-01-23T03:16:50.137Z,20.86
2018-01-23T03:17:21.758Z,20.86
2018-01-23T03:17:53.386Z,20.85
2018-01-23T03:18:25.019Z,20.86
2018-01-23T03:18:56.661Z,20.86
2018-01-23T03:19:28.309Z,20.86
2018-01-23T03:19:59.978Z,20.85
2018-01-23T03:20:31.601Z,20.86
2018-01-23T03:21:03.230Z,20.87
2018-01-23T03:21:34.849Z,20.86
2018-01-23T03:22:06.470Z,20.85
2018-01-23T03:22:38.090Z,20.86
2018-01-23T03:23:09.718Z,20.82
2018-01-23T03:23:41.373Z,20.84
2018-01-23T03:24:13.049Z,20.83
2018-01-23T03:24:44.678Z,20.83
2018-01-23T03:25:16.301Z,20.81
2018-01-23T03:25:47.934Z,20.82
2018-01-23T03:26:19.559Z,20.80
2018-01-23T03:26:51.190Z,20.81
2018-01-23T03:27:22.814Z,20.82
2018-01-23T03:27:54.441Z,20.84
2018-01-23T03:28:26.070Z,20.83
2018-01-23T03:28:57.698Z,20.84
2018-01-23T03:29:29.366Z,20.84
2018-01-23T03:30:00.990Z,20.84
2018-01-23T03:30:32.622Z,20.83
2018-01-23T03:31:04.246Z,20.84
2018-01-23T03:31:35.874Z,20.82
2018-01-23T03:32:07.567Z,20.82
2018-01-23T03:32:39.190Z,20.85
2018-01-23T03:33:10.846Z,20.85
2018-01-23T03:33:42.481Z,20.87
2018-01-23T03:34:14.105Z,20.86
2018-01-23T03:34:45.734Z,20.85
2018-01-23T03:35:17.361Z,20.84
2018-01-23T03:35:49.025Z,20.83
2018-01-23T03:36:20.646Z,20.84
2018-01-23T03:36:52.313Z,20.84
2018-01-23T03:37:23.942Z,20.84
2018-01-23T03:37:55.574Z,20.84
2018-01-23T03:38:27.197Z,20.84
2018-01-23T03:38:58.825Z,20.84
2018-01-23T03:39:30.454Z,20.84
2018-01-23T03:40:02.083Z,20.84
2018-01-23T03:40:33.707Z,20.87
2018-01-23T03:41:05.334Z,20.86
2018-01-23T03:41:36.953Z,20.89
2018-01-23T03:42:08.621Z,20.83
2018-01-23T03:42:40.245Z,20.89
2018-01-23T03:43:11.870Z,20.91
2018-01-23T03:43:43.495Z,20.90
2018-01-23T03:44:15.117Z,20.90
2018-01-23T03:44:46.742Z,20.89
2018-01-23T03:45:18.370Z,20.91
2018-01-23T03:45:49.997Z,20.89
2018-01-23T03:46:21.661Z,20.88
2018-01-23T03:46:53.333Z,20.91
2018-01-23T03:47:24.961Z,20.91
2018-01-23T03:47:56.582Z,20.90
2018-01-23T03:48:28.209Z,20.90
2018-01-23T03:48:59.829Z,20.88
2018-01-23T03:49:31.455Z,20.88
2018-01-23T03:50:03.113Z,20.89
2018-01-23T03:50:34.733Z,20.90
2018-01-23T03:51:06.430Z,20.89
2018-01-23T03:51:38.054Z,20.90
2018-01-23T03:52:09.682Z,20.90
2018-01-23T03:52:41.310Z,20.90
2018-01-23T03:53:12.933Z,20.89
2018-01-23T03:53:44.553Z,20.88
2018-01-23T03:54:16.185Z,20.90
2018-01-23T03:54:47.814Z,20.90
2018-01-23T03:55:19.445Z,20.90
2018-01-23T03:55:51.069Z,20.88
2018-01-23T03:56:22.697Z,20.87
2018-01-23T03:56:54.326Z,20.88
2018-01-23T03:57:26.014Z,20.89
2018-01-23T03:57:57.637Z,20.88
2018-01-23T03:58:29.266Z,20.88
2018-01-23T03:59:00.894Z,20.88
2018-01-23T03:59:32.545Z,20.87
2018-01-23T04:00:04.193Z,20.90
2018-01-23T04:00:35.841Z,20.91
2018-01-23T04:01:07.489Z,20.91
2018-01-23T04:01:39.137Z,20.96
2018-01-23T04:02:10.877Z,20.96
2018-01-23T04:02:42.525Z,20.95
2018-01-23T04:03:14.173Z,20.94
2018-01-23T04:03:45.820Z,20.94
2018-01-23T04:04:17.460Z,20.93
2018-01-23T04:04:49.109Z,20.93
2018-01-23T04:05:20.796Z,20.89
2018-01-23T04:05:52.449Z,20.91
2018-01-23T04:06:24.097Z,20.94
2018-01-23T04:06:55.749Z,20.93
2018-01-23T04:07:27.392Z,20.94
2018-01-23T04:07:59.084Z,20.94
2018-01-23T04:08:30.729Z,20.96
2018-01-23T04:09:02.372Z,20.96
2018-01-23T04:09:34.017Z,20.96
2018-01-23T04:10:05.665Z,20.96
2018-01-23T04:10:37.322Z,20.95
2018-01-23T04:11:08.973Z,20.93
2018-01-23T04:11:40.620Z,20.92
2018-01-23T04:12:12.269Z,20.92
2018-01-23T04:12:43.921Z,20.91
2018-01-23T04:13:15.609Z,20.93
2018-01-23T04:13:47.257Z,20.93
2018-01-23T04:14:18.981Z,20.91
2018-01-23T04:14:50.629Z,20.91
2018-01-23T04:15:22.433Z,20.90
2018-01-23T04:15:54.077Z,20.90
2018-01-23T04:16:25.724Z,20.91
2018-01-23T04:16:57.379Z,20.90
2018-01-23T04:17:29.029Z,20.90
2018-01-23T04:18:00.677Z,20.90
2018-01-23T04:18:32.325Z,20.90
2018-01-23T04:19:03.976Z,20.87
2018-01-23T04:19:35.633Z,20.88
2018-01-23T04:20:07.281Z,20.87
2018-01-23T04:20:38.970Z,20.88
2018-01-23T04:21:10.617Z,20.86
2018-01-23T04:21:42.269Z,20.84
2018-01-23T04:22:13.917Z,20.85
2018-01-23T04:22:45.605Z,20.85
2018-01-23T04:23:17.256Z,20.85
2018-01-23T04:23:48.905Z,20.86
2018-01-23T04:24:20.563Z,20.84
2018-01-23T04:24:52.213Z,20.84
2018-01-23T04:25:23.865Z,20.85
2018-01-23T04:25:55.549Z,20.84
2018-01-23T04:26:27.197Z,20.85
2018-01-23T04:26:58.853Z,20.85
2018-01-23T04:27:30.505Z,20.84
2018-01-23T04:28:02.201Z,20.85
2018-01-23T04:28:33.853Z,20.85
2018-01-23T04:29:05.504Z,20.85
2018-01-23T04:29:37.153Z,20.82
2018-01-23T04:30:08.801Z,20.83
2018-01-23T04:30:40.449Z,20.84
2018-01-23T04:31:12.177Z,20.82
2018-01-23T04:31:43.904Z,20.80
2018-01-23T04:32:15.553Z,20.81
2018-01-23T04:32:47.201Z,20.80
2018-01-23T04:33:18.849Z,20.80
2018-01-23T04:33:50.504Z,20.80
2018-01-23T04:34:22.217Z,20.79
2018-01-23T04:34:53.869Z,20.80
2018-01-23T04:35:25.513Z,20.80
2018-01-23T04:35:57.161Z,20.80
2018-01-23T04:36:28.813Z,20.81
2018-01-23T04:37:00.685Z,20.82
2018-01-23T04:37:32.446Z,20.81
2018-01-23T04:38:04.093Z,20.75
2018-01-23T04:38:35.741Z,20.82
2018-01-23T04:39:07.392Z,20.81
2018-01-23T04:39:39.047Z,20.82
2018-01-23T04:40:10.758Z,20.81
2018-01-23T04:40:42.404Z,20.80
2018-01-23T04:41:14.048Z,20.79
2018-01-23T04:41:45.697Z,20.79
2018-01-23T04:42:17.393Z,20.81
2018-01-23T04:42:49.041Z,20.81
2018-01-23T04:43:20.694Z,20.80
2018-01-23T04:43:52.412Z,20.81
2018-01-23T04:44:24.061Z,20.81
2018-01-23T04:44:55.709Z,20.81
2018-01-23T04:45:27.357Z,20.80
2018-01-23T04:45:59.005Z,20.80
2018-01-23T04:46:30.653Z,20.81
2018-01-23T04:47:02.301Z,20.79
2018-01-23T04:47:33.949Z,20.79
2018-01-23T04:48:05.597Z,20.79
2018-01-23T04:48:37.244Z,20.80
2018-01-23T04:49:08.893Z,20.78
2018-01-23T04:49:40.540Z,20.81
2018-01-23T04:50:12.189Z,20.80
2018-01-23T04:50:43.885Z,20.79
2018-01-23T04:51:15.532Z,20.77
2018-01-23T04:51:47.185Z,20.79
2018-01-23T04:52:18.838Z,20.77
2018-01-23T04:52:50.493Z,20.77
2018-01-23T04:53:22.141Z,20.75
2018-01-23T04:53:53.780Z,20.74
2018-01-23T04:54:25.430Z,20.74
2018-01-23T04:54:57.084Z,20.75
2018-01-23T04:55:28.781Z,20.77
2018-01-23T04:56:00.493Z,20.78
2018-01-23T04:56:32.140Z,20.80
2018-01-23T04:57:03.858Z,20.73
2018-01-23T04:57:35.504Z,20.78
2018-01-23T04:58:07.149Z,20.78
2018-01-23T04:58:38.806Z,20.77
2018-01-23T04:59:10.452Z,20.77
2018-01-23T04:59:42.097Z,20.76
2018-01-23T05:00:13.745Z,20.77
2018-01-23T05:00:45.393Z,20.76
2018-01-23T05:01:17.084Z,20.77
2018-01-23T05:01:48.732Z,20.78
2018-01-23T05:02:20.381Z,20.80
2018-01-23T05:02:52.029Z,20.79
2018-01-23T05:03:23.678Z,20.79
2018-01-23T05:03:55.333Z,20.79
2018-01-23T05:04:26.980Z,20.81
2018-01-23T05:04:58.629Z,20.80
2018-01-23T05:05:30.325Z,20.79
2018-01-23T05:06:01.973Z,20.81
2018-01-23T05:06:33.625Z,20.82
2018-01-23T05:07:05.273Z,20.80
2018-01-23T05:07:36.920Z,20.80
2018-01-23T05:08:08.569Z,20.80
2018-01-23T05:08:40.261Z,20.79
2018-01-23T05:09:11.914Z,20.79
2018-01-23T05:09:43.678Z,20.78
2018-01-23T05:10:15.329Z,20.77
2018-01-23T05:10:46.982Z,20.76
2018-01-23T05:11:18.633Z,20.76
2018-01-23T05:11:50.281Z,20.75
2018-01-23T05:12:21.933Z,20.74
2018-01-23T05:12:53.630Z,20.74
2018-01-23T05:13:25.277Z,20.74
2018-01-23T05:13:56.925Z,20.74
2018-01-23T05:14:28.578Z,20.74
2018-01-23T05:15:00.229Z,20.74
2018-01-23T05:15:31.913Z,20.74
2018-01-23T05:16:03.565Z,20.76
2018-01-23T05:16:35.212Z,20.77
2018-01-23T05:17:06.861Z,20.77
2018-01-23T05:17:38.611Z,20.79
2018-01-23T05:18:10.300Z,20.79
2018-01-23T05:18:41.945Z,20.79
2018-01-23T05:19:13.596Z,20.79
2018-01-23T05:19:45.241Z,20.79
2018-01-23T05:20:16.954Z,20.80
2018-01-23T05:20:48.605Z,20.80
2018-01-23T05:21:20.261Z,20.83
2018-01-23T05:21:51.905Z,20.83
2018-01-23T05:22:23.550Z,20.83
2018-01-23T05:22:55.229Z,20.83
2018-01-23T05:23:26.877Z,20.81
2018-01-23T05:23:58.525Z,20.82
2018-01-23T05:24:30.285Z,20.84
2018-01-23T05:25:01.936Z,20.84
2018-01-23T05:25:33.645Z,20.84
2018-01-23T05:26:05.356Z,20.83
2018-01-23T05:26:37.005Z,20.83
2018-01-23T05:27:08.654Z,20.84
2018-01-23T05:27:40.305Z,20.83
2018-01-23T05:28:11.953Z,20.85
2018-01-23T05:28:43.601Z,20.86
2018-01-23T05:29:15.248Z,20.85
2018-01-23T05:29:46.897Z,20.84
2018-01-23T05:30:18.540Z,20.83
2018-01-23T05:30:50.245Z,20.84
2018-01-23T05:31:21.932Z,20.84
2018-01-23T05:31:53.590Z,20.82
2018-01-23T05:32:25.274Z,20.82
2018-01-23T05:32:56.921Z,20.82
2018-01-23T05:33:28.570Z,20.81
2018-01-23T05:34:00.216Z,20.81
2018-01-23T05:34:31.865Z,20.82
2018-01-23T05:35:03.513Z,20.83
2018-01-23T05:35:35.161Z,20.85
2018-01-23T05:36:06.857Z,20.88
2018-01-23T05:36:38.505Z,20.91
2018-01-23T05:37:10.186Z,20.95
2018-01-23T05:37:41.836Z,20.94
2018-01-23T05:38:13.484Z,20.94
2018-01-23T05:38:45.132Z,20.95
2018-01-23T05:39:16.777Z,20.96
2018-01-23T05:39:48.435Z,20.95
2018-01-23T05:40:20.084Z,20.98
2018-01-23T05:40:51.729Z,21.00
2018-01-23T05:41:23.417Z,21.01
2018-01-23T05:41:55.065Z,20.96
2018-01-23T05:42:26.713Z,20.94
2018-01-23T05:42:58.369Z,20.91
2018-01-23T05:43:30.076Z,20.89
2018-01-23T05:44:01.737Z,20.87
2018-01-23T05:44:33.389Z,20.86
2018-01-23T05:45:05.038Z,20.83
2018-01-23T05:45:36.745Z,20.83
2018-01-23T05:46:08.404Z,20.82
2018-01-23T05:46:40.053Z,20.84
2018-01-23T05:47:11.701Z,20.80
2018-01-23T05:47:43.452Z,20.80
2018-01-23T05:48:15.109Z,20.82
2018-01-23T05:48:46.752Z,20.83
2018-01-23T05:49:18.401Z,20.84
2018-01-23T05:49:50.049Z,20.87
2018-01-23T05:50:21.697Z,20.87
2018-01-23T05:50:53.384Z,20.88
2018-01-23T05:51:25.032Z,20.88
2018-01-23T05:51:56.677Z,20.85
2018-01-23T05:52:28.346Z,20.85
2018-01-23T05:52:59.997Z,20.82
2018-01-23T05:53:31.653Z,20.85
2018-01-23T05:54:03.305Z,20.82
2018-01-23T05:54:34.958Z,20.83
2018-01-23T05:55:06.614Z,20.83
2018-01-23T05:55:38.274Z,20.79
2018-01-23T05:56:09.969Z,20.78
2018-01-23T05:56:41.625Z,20.79
2018-01-23T05:57:13.276Z,20.78
2018-01-23T05:57:44.925Z,20.78
2018-01-23T05:58:16.573Z,20.78
2018-01-23T05:58:48.221Z,20.76
2018-01-23T05:59:19.864Z,20.74
2018-01-23T05:59:51.512Z,20.73
2018-01-23T06:00:23.161Z,20.74
2018-01-23T06:00:54.809Z,20.72
2018-01-23T06:01:26.513Z,20.69
2018-01-23T06:01:58.160Z,20.69
2018-01-23T06:02:29.804Z,20.67
2018-01-23T06:03:01.453Z,20.69
2018-01-23T06:03:33.105Z,20.69
2018-01-23T06:04:04.752Z,20.68
2018-01-23T06:04:36.404Z,20.66
2018-01-23T06:05:08.053Z,20.67
2018-01-23T06:05:39.696Z,20.68
2018-01-23T06:06:11.373Z,20.66
2018-01-23T06:06:43.021Z,20.65
2018-01-23T06:07:14.670Z,20.57
2018-01-23T06:07:46.323Z,20.63
2018-01-23T06:08:18.004Z,20.62
2018-01-23T06:08:49.652Z,20.61
2018-01-23T06:09:21.296Z,20.61
2018-01-23T06:09:52.945Z,20.62
2018-01-23T06:10:24.597Z,20.62
2018-01-23T06:10:56.306Z,20.62
2018-01-23T06:11:27.984Z,20.61
2018-01-23T06:11:59.632Z,20.61
2018-01-23T06:12:31.356Z,20.62
2018-01-23T06:13:03.006Z,20.61
2018-01-23T06:13:34.657Z,20.62
2018-01-23T06:14:06.305Z,20.60
2018-01-23T06:14:37.952Z,20.60
2018-01-23T06:15:09.600Z,20.61
2018-01-23T06:15:41.249Z,20.61
2018-01-23T06:16:13.027Z,20.64
2018-01-23T06:16:44.677Z,20.66
2018-01-23T06:17:16.325Z,20.66
2018-01-23T06:17:48.094Z,20.66
2018-01-23T06:18:19.736Z,20.66
2018-01-23T06:18:51.392Z,20.66
2018-01-23T06:19:23.042Z,20.69
2018-01-23T06:19:54.689Z,20.69
2018-01-23T06:20:26.337Z,20.70
2018-01-23T06:20:57.985Z,20.71
2018-01-23T06:21:29.632Z,20.73
2018-01-23T06:22:01.285Z,20.75
2018-01-23T06:22:32.933Z,20.74
2018-01-23T06:23:04.629Z,20.76
2018-01-23T06:23:36.277Z,20.76
2018-01-23T06:24:07.925Z,20.76
2018-01-23T06:24:39.573Z,20.75
2018-01-23T06:25:11.221Z,20.76
2018-01-23T06:25:42.873Z,20.77
2018-01-23T06:26:14.570Z,20.76
2018-01-23T06:26:46.205Z,20.75
2018-01-23T06:27:17.885Z,20.78
2018-01-23T06:27:49.533Z,20.79
2018-01-23T06:28:21.257Z,20.80
2018-01-23T06:28:52.904Z,20.80
2018-01-23T06:29:24.552Z,20.78
2018-01-23T06:29:56.196Z,20.78
2018-01-23T06:30:27.841Z,20.78
2018-01-23T06:30:59.489Z,20.80
2018-01-23T06:31:31.148Z,20.80
2018-01-23T06:32:02.797Z,20.80
2018-01-23T06:32:34.497Z,20.78
2018-01-23T06:33:06.152Z,20.77
2018-01-23T06:33:37.872Z,20.78
2018-01-23T06:34:09.570Z,20.78
2018-01-23T06:34:41.221Z,20.76
2018-01-23T06:35:12.873Z,20.75
2018-01-23T06:35:44.520Z,20.75
2018-01-23T06:36:16.169Z,20.76
2018-01-23T06:36:47.813Z,20.76
2018-01-23T06:37:19.457Z,20.78
2018-01-23T06:37:51.118Z,20.77
2018-01-23T06:38:22.766Z,20.76
2018-01-23T06:38:54.408Z,20.75
2018-01-23T06:39:26.057Z,20.76
2018-01-23T06:39:57.705Z,20.77
2018-01-23T06:40:29.358Z,20.77
2018-01-23T06:41:01.008Z,20.78
2018-01-23T06:41:32.657Z,20.82
2018-01-23T06:42:04.304Z,20.85
2018-01-23T06:42:35.961Z,20.85
2018-01-23T06:43:07.609Z,20.85
2018-01-23T06:43:39.261Z,20.84
2018-01-23T06:44:10.904Z,20.84
2018-01-23T06:44:42.552Z,20.83
2018-01-23T06:45:14.209Z,20.84
2018-01-23T06:45:45.857Z,20.84
2018-01-23T06:46:17.505Z,20.81
2018-01-23T06:46:49.161Z,20.82
2018-01-23T06:47:20.810Z,20.82